Airport View

Enter AWOS ICAO identifier for current METAR.

ex. KFNL

KART 100156Z AUTO 00000KT 10SM CLR 24/19 A2991 RMK AO2 SLP121 T02390194 $

10 Jul 2020 02:32

Frequency: 132.325

Phone: 315-639-4002

Other Area AWOS: KGTB - CWGH - CYGK - KFZY

TAF KART 092337Z 1000/1024 VRB04KT P6SM SKC FM101100 16006KT P6SM FEW250 FM101500 19006KT P6SM SCT050 SCT250 FM102100 15006KT P6SM SCT250